Verenigde State

Kalifornië-stad se huidige weer

Sonne
20.1°C68.2°F
  • Huidige temperatuur: 20.1°C68.2°F
  • Huidige gevoelstemperatuur: 20.1°C68.2°F
  • Huidige humiditeit: 35%
  • Laagste temperatuur/Hoogste temperatuur: 14.4°C57.9°F / 35.8°C96.4°F
  • Windspoed: 13km/h
  • Windrigting: van die Oos
(Datatyd 02:00 / Data verkryging 2026-05-08 22:15)

Kalifornië-stad se uur-tot-uur weer

Kalifornië-stad se uur-tot-uur weer-oorsig

Datuum Tyd Weer Temperatuur Gevoelstemperatuur Humiditeit Reën waarskynlikheid Windspoed Windrigting UV-indeks
Vry, 8 Mei 0:00 Sonne 20.1°C68.2°F 20.1°C68.2°F 35% Reën:0%  Sneeu:0% 13km/h van die Oos 0
Vry, 8 Mei 1:00 Sonne 18.9°C66°F 18.9°C66°F 39% Reën:0%  Sneeu:0% 12.6km/h van die Oos 0
Vry, 8 Mei 2:00 Sonne 17.7°C63.9°F 17.7°C63.9°F 44% Reën:0%  Sneeu:0% 11.5km/h van die Oos 0
Vry, 8 Mei 3:00 Sonne 16.6°C61.9°F 16.6°C61.9°F 50% Reën:0%  Sneeu:0% 10.8km/h van die Oos 0
Vry, 8 Mei 4:00 Sonne 15.7°C60.3°F 15.5°C59.9°F 51% Reën:0%  Sneeu:0% 10.1km/h van die Oos 0
Vry, 8 Mei 5:00 Sonne 15.1°C59.1°F 14.7°C58.5°F 53% Reën:0%  Sneeu:0% 9.7km/h van die Oos 0
Vry, 8 Mei 6:00 Sonne 15.5°C60°F 15.4°C59.7°F 56% Reën:0%  Sneeu:0% 9.7km/h van die Oos 0
Vry, 8 Mei 7:00 Sonne 18.9°C66°F 18.8°C65.8°F 54% Reën:0%  Sneeu:0% 9.7km/h van die Oos 0.3
Vry, 8 Mei 8:00 Sonne 22.7°C72.8°F 22.7°C72.8°F 38% Reën:0%  Sneeu:0% 10.1km/h van die Oos 1.1
Vry, 8 Mei 9:00 Sonne 25.4°C77.7°F 24.7°C76.5°F 29% Reën:0%  Sneeu:0% 9.4km/h van die Oos 2.6
Vry, 8 Mei 10:00 Sonne 29.3°C84.7°F 28°C82.4°F 27% Reën:0%  Sneeu:0% 8.6km/h van die Oos-noordoos 4.7
Vry, 8 Mei 11:00 Sonne 31.9°C89.4°F 30.3°C86.5°F 22% Reën:0%  Sneeu:0% 9.7km/h van die Oos-noordoos 6.8
Vry, 8 Mei 12:00 Sonne 33.6°C92.6°F 32°C89.6°F 18% Reën:0%  Sneeu:0% 11.9km/h van die Oos-noordoos 8.3
Vry, 8 Mei 13:00 Sonne 34.7°C94.5°F 33.1°C91.5°F 16% Reën:0%  Sneeu:0% 14.8km/h van die Oos-noordoos 8.9
Vry, 8 Mei 14:00 Sonne 34.7°C94.4°F 32.9°C91.2°F 15% Reën:0%  Sneeu:0% 17.3km/h van die Oos-noordoos 8.1
Vry, 8 Mei 15:00 Sonne 34°C93.3°F 32.1°C89.8°F 17% Reën:0%  Sneeu:0% 21.6km/h van die Oos 6.4
Vry, 8 Mei 16:00 Sonne 33.1°C91.5°F 31°C87.8°F 18% Reën:0%  Sneeu:0% 25.2km/h van die Oos 4.2
Vry, 8 Mei 17:00 Sonne 31.7°C89°F 29.5°C85.2°F 16% Reën:0%  Sneeu:0% 26.6km/h van die Oos 2.2
Vry, 8 Mei 18:00 Sonne 29.6°C85.4°F 27.7°C81.8°F 18% Reën:0%  Sneeu:0% 25.2km/h van die Oos 0.8
Vry, 8 Mei 19:00 Sonne 26.7°C80.1°F 25.5°C77.9°F 21% Reën:0%  Sneeu:0% 22.3km/h van die Oos 0.2
Vry, 8 Mei 20:00 Mis 27.4°C81.3°F 24°C75.2°F 30% Reën:0%  Sneeu:0% 18km/h van die Oos-noordoos 0
Vry, 8 Mei 21:00 Sonne 22.2°C72°F 22.2°C71.9°F 25% Reën:0%  Sneeu:0% 15.5km/h van die Oos-noordoos 0
Vry, 8 Mei 22:00 Sonne 20.5°C68.8°F 20.5°C68.8°F 26% Reën:0%  Sneeu:0% 13.7km/h van die Oos-noordoos 0
Vry, 8 Mei 23:00 Sonne 18.8°C65.8°F 18.8°C65.8°F 29% Reën:0%  Sneeu:0% 12.6km/h van die Oos-noordoos 0
Sat, 9 Mei 0:00 Sonne 17.4°C63.3°F 17.4°C63.3°F 33% Reën:0%  Sneeu:0% 12.2km/h van die Oos 0
Sat, 9 Mei 1:00 Sonne 16.3°C61.3°F 16.3°C61.3°F 36% Reën:0%  Sneeu:0% 11.5km/h van die Oos 0
Sat, 9 Mei 2:00 Sonne 15.1°C59.3°F 15°C59°F 37% Reën:0%  Sneeu:0% 11.2km/h van die Oos 0
Sat, 9 Mei 3:00 Sonne 14.2°C57.5°F 13.9°C57°F 40% Reën:0%  Sneeu:0% 10.8km/h van die Oos-noordoos 0
Sat, 9 Mei 4:00 Sonne 13.5°C56.4°F 13°C55.5°F 41% Reën:0%  Sneeu:0% 10.1km/h van die Oos 0
Sat, 9 Mei 5:00 Sonne 13.2°C55.7°F 12.5°C54.6°F 42% Reën:0%  Sneeu:0% 8.6km/h van die Oos 0
Sat, 9 Mei 6:00 Sonne 13.7°C56.7°F 13.5°C56.4°F 41% Reën:0%  Sneeu:0% 8.6km/h van die Oos 0
Sat, 9 Mei 7:00 Sonne 16.1°C61°F 16°C60.8°F 42% Reën:0%  Sneeu:0% 9km/h van die Oos 0.3
Sat, 9 Mei 8:00 Sonne 19.6°C67.2°F 19.5°C67.1°F 34% Reën:0%  Sneeu:0% 6.8km/h van die Oos-noordoos 1.2
Sat, 9 Mei 9:00 Sonne 22.4°C72.3°F 21.8°C71.2°F 26% Reën:0%  Sneeu:0% 5.4km/h van die Oos-noordoos 2.9
Sat, 9 Mei 10:00 Sonne 24.9°C76.9°F 23.7°C74.6°F 17% Reën:0%  Sneeu:0% 5.4km/h van die Noordoos 5.2
Sat, 9 Mei 11:00 Sonne 27.2°C80.9°F 25.5°C77.8°F 14% Reën:0%  Sneeu:0% 7.2km/h van die Noord-noordoos 7.6
Sat, 9 Mei 12:00 Sonne 29°C84.2°F 27°C80.6°F 13% Reën:0%  Sneeu:0% 8.6km/h van die Noord-noordoos 9.3
Sat, 9 Mei 13:00 Sonne 30.5°C86.8°F 28.4°C83.1°F 12% Reën:0%  Sneeu:0% 8.3km/h van die Noord 9.8
Sat, 9 Mei 14:00 Sonne 31.6°C88.9°F 29.5°C85.1°F 11% Reën:0%  Sneeu:0% 9km/h van die Noord-noordoos 9
Sat, 9 Mei 15:00 Sonne 32.3°C90.2°F 30.2°C86.4°F 11% Reën:0%  Sneeu:0% 11.5km/h van die Noordoos 7.1
Sat, 9 Mei 16:00 Sonne 32.3°C90.1°F 30.1°C86.2°F 12% Reën:0%  Sneeu:0% 15.8km/h van die Oos-noordoos 4.6
Sat, 9 Mei 17:00 Sonne 31.2°C88.2°F 29°C84.2°F 14% Reën:0%  Sneeu:0% 23.4km/h van die Oos 2.4
Sat, 9 Mei 18:00 Sonne 29.9°C85.8°F 27.7°C81.9°F 17% Reën:0%  Sneeu:0% 24.1km/h van die Oos 0.9
Sat, 9 Mei 19:00 Sonne 27.8°C82°F 26.1°C79°F 18% Reën:0%  Sneeu:0% 21.2km/h van die Oos 0.2
Sat, 9 Mei 20:00 Sonne 25.8°C78.5°F 24.8°C76.7°F 22% Reën:0%  Sneeu:0% 18.7km/h van die Oos 0
Sat, 9 Mei 21:00 Sonne 24.3°C75.7°F 23.9°C75.1°F 24% Reën:0%  Sneeu:0% 15.1km/h van die Oos-noordoos 0
Sat, 9 Mei 22:00 Sonne 22.9°C73.3°F 23.4°C74°F 25% Reën:0%  Sneeu:0% 13km/h van die Oos-noordoos 0
Sat, 9 Mei 23:00 Sonne 21.9°C71.5°F 21.9°C71.5°F 27% Reën:0%  Sneeu:0% 11.9km/h van die Oos-noordoos 0
Son, 10 Mei 0:00 Sonne 21.1°C69.9°F 21.1°C69.9°F 27% Reën:0%  Sneeu:0% 10.8km/h van die Oos-noordoos 0
Son, 10 Mei 1:00 Sonne 20.3°C68.6°F 20.3°C68.6°F 28% Reën:0%  Sneeu:0% 9.7km/h van die Oos 0
Son, 10 Mei 2:00 Sonne 19.6°C67.2°F 19.6°C67.2°F 29% Reën:0%  Sneeu:0% 9.4km/h van die Oos 0
Son, 10 Mei 3:00 Sonne 18.9°C66°F 18.9°C66°F 31% Reën:0%  Sneeu:0% 7.6km/h van die Oos 0
Son, 10 Mei 4:00 Sonne 18.4°C65.1°F 18.4°C65.1°F 32% Reën:0%  Sneeu:0% 6.1km/h van die Oos 0
Son, 10 Mei 5:00 Sonne 17.9°C64.3°F 17.9°C64.3°F 33% Reën:0%  Sneeu:0% 6.8km/h van die Oos 0
Son, 10 Mei 6:00 Sonne 18.9°C66°F 18.9°C66.1°F 34% Reën:0%  Sneeu:0% 6.8km/h van die Oos 0
Son, 10 Mei 7:00 Sonne 21°C69.8°F 21°C69.8°F 31% Reën:0%  Sneeu:0% 5.4km/h van die Oos 0.3
Son, 10 Mei 8:00 Sonne 22.9°C73.3°F 22.5°C72.5°F 25% Reën:0%  Sneeu:0% 2.2km/h van die Noordoos 1.2
Son, 10 Mei 9:00 Sonne 24.9°C76.7°F 23.8°C74.8°F 22% Reën:0%  Sneeu:0% 3.6km/h van die Noord-noordwes 3
Son, 10 Mei 10:00 Sonne 26.8°C80.2°F 25.2°C77.4°F 19% Reën:0%  Sneeu:0% 4.3km/h van die Noord-noordwes 5.4
Son, 10 Mei 11:00 Sonne 28.7°C83.6°F 26.7°C80.1°F 17% Reën:0%  Sneeu:0% 4.7km/h van die Noord-noordwes 7.8
Son, 10 Mei 12:00 Sonne 30.4°C86.7°F 28.3°C83°F 14% Reën:0%  Sneeu:0% 5.4km/h van die Noord-noordwes 9.6
Son, 10 Mei 13:00 Sonne 32°C89.6°F 29.9°C85.9°F 11% Reën:0%  Sneeu:0% 7.2km/h van die Noord-noordwes 10
Son, 10 Mei 14:00 Sonne 33.1°C91.6°F 31.1°C88°F 9% Reën:0%  Sneeu:0% 10.4km/h van die Noord-noordwes 9.1
Son, 10 Mei 15:00 Sonne 33.8°C92.9°F 31.9°C89.4°F 8% Reën:0%  Sneeu:0% 13km/h van die Noord 7.1
Son, 10 Mei 16:00 Sonne 33.9°C93°F 31.9°C89.4°F 8% Reën:0%  Sneeu:0% 15.8km/h van die Noord-noordoos 4.6
Son, 10 Mei 17:00 Sonne 33.1°C91.7°F 31°C87.9°F 10% Reën:0%  Sneeu:0% 25.2km/h van die Noordoos 2.5
Son, 10 Mei 18:00 Sonne 31.9°C89.4°F 29.7°C85.5°F 14% Reën:0%  Sneeu:0% 31km/h van die Noordoos 0.9
Son, 10 Mei 19:00 Sonne 29.7°C85.4°F 27.7°C81.9°F 17% Reën:0%  Sneeu:0% 27.4km/h van die Noordoos 0.2
Son, 10 Mei 20:00 Sonne 27.7°C81.8°F 26.2°C79.2°F 21% Reën:0%  Sneeu:0% 21.2km/h van die Oos-noordoos 0
Son, 10 Mei 21:00 Sonne 25.9°C78.7°F 25.1°C77.2°F 25% Reën:0%  Sneeu:0% 16.2km/h van die Oos-noordoos 0
Son, 10 Mei 22:00 Sonne 24.5°C76.1°F 24.4°C75.9°F 28% Reën:0%  Sneeu:0% 14.8km/h van die Oos-noordoos 0
Son, 10 Mei 23:00 Sonne 23.5°C74.2°F 23.9°C75°F 29% Reën:0%  Sneeu:0% 13.3km/h van die Oos-noordoos 0


Bootstrap